• Join FlightAware (Why Join?)
  • Login
  • US Flag 
03:12AM EDT


 

Airport Tracker/Info


-or-


 

Live Flight TrackerFlight Track Log ✈ AWE3397 ✈ 21-May-2013 ✈ KPHL - KMSY

Flight Track Log - Related Links

Times and Time Zones

All times are in EDT time to prevent confusion due to time zone crossing. See the AWE3397 flight status page for this flight to view local times or setup timezone preferences in your user account.

Time Position Orientation Groundspeed Altitude Reporting Facility
EDT Latitude Longitude Course Direction KTS MPH feet Rate Location/Type
08:20AM 39.8667 -75.2833 258° West 154 177 1,200  Level Philadelphia TRACON
08:21AM 39.8500 -75.3667 255° West 219 252 3,200 2,280 Climbing Philadelphia TRACON
08:22AM 39.8333 -75.4500 255° West 277 319 6,300 2,340 Climbing Philadelphia TRACON
08:24AM 39.8215 -75.8543 258° West  Level FlightAware Approximate
08:24AM 39.8478 -75.6542 275° West 265 305 10,800  Level New York Center
08:25AM 39.8007 -75.9793 258° West  Level FlightAware Approximate
08:25AM 39.8411 -75.7644 266° West 304 350 13,000  Level New York Center
08:26AM 39.8275 -75.8825 261° West 326 375 15,600 2,340 Climbing New York Center
08:27AM 39.8139 -76.0058 262° West 337 388 17,700 1,980 Climbing New York Center
08:28AM 39.8044 -76.1214 264° West 353 406 19,500 2,040 Climbing New York Center
08:29AM 39.7669 -76.2589 251° West 359 413 21,800 2,040 Climbing New York Center
08:30AM 39.7217 -76.3769 244° Southwest 364 419 23,700 1,740 Climbing New York Center
08:31AM 39.6739 -76.5025 244° Southwest 375 432 25,300 1,500 Climbing New York Center
08:32AM 39.6139 -76.6217 237° Southwest 387 445 26,700 1,260 Climbing New York Center
08:33AM 39.5756 -76.6658 222° Southwest 392 451 27,300 960 Climbing Washington Center
08:34AM 39.4975 -76.7694 226° Southwest 411 473 28,200 960 Climbing Washington Center
08:35AM 39.4131 -76.8756 224° Southwest 411 473 29,200 1,020 Climbing Washington Center
08:36AM 39.3283 -76.9867 225° Southwest 424 488 30,300 960 Climbing Washington Center
08:37AM 39.2417 -77.1003 225° Southwest 430 495 31,200 960 Climbing Washington Center
08:38AM 39.1569 -77.2083 225° Southwest 435 501 32,300 1,080 Climbing Washington Center
08:39AM 39.0719 -77.3189 225° Southwest 435 501 33,400 1,080 Climbing Washington Center
08:40AM 38.9892 -77.4236 225° Southwest 430 495 34,500 840 Climbing Washington Center
08:41AM 38.8997 -77.5414 226° Southwest 425 489 35,200 660 Climbing Washington Center
08:42AM 38.8317 -77.6250 224° Southwest 430 495 35,800 360 Climbing Washington Center
08:43AM 38.7336 -77.7447 224° Southwest 430 495 36,000 60 Climbing Washington Center
08:44AM 38.6439 -77.8617 226° Southwest 430 495 36,000  Level Washington Center
08:45AM 38.5728 -77.9789 232° Southwest 430 495 36,000  Level Washington Center
08:46AM 38.5014 -78.1014 233° Southwest 430 495 36,000  Level Washington Center
08:47AM 38.4322 -78.2208 234° Southwest 430 495 36,000  Level Washington Center
08:48AM 38.3606 -78.3456 234° Southwest 430 495 36,000  Level Washington Center
08:49AM 38.2911 -78.4647 233° Southwest 430 495 36,000  Level Washington Center
08:50AM 38.2214 -78.5889 234° Southwest 430 495 36,000  Level Washington Center
08:51AM 38.1539 -78.6969 232° Southwest 430 495 36,000  Level Washington Center
08:52AM 38.0797 -78.8206 233° Southwest 435 501 36,000  Level Washington Center
08:53AM 38.0056 -78.9439 233° Southwest 440 506 36,000  Level Washington Center
08:54AM 37.9311 -79.0669 233° Southwest 440 506 36,000  Level Washington Center
08:55AM 37.8561 -79.2083 236° Southwest 452 520 36,000  Level Washington Center
08:56AM 37.7872 -79.3442 237° Southwest 457 526 36,000  Level Washington Center
08:57AM 37.7203 -79.4828 239° Southwest 457 526 36,000  Level Washington Center
08:58AM 37.6578 -79.6028 237° Southwest 463 533 36,000  Level Washington Center
08:59AM 37.5819 -79.7508 237° Southwest 469 540 36,000  Level Washington Center
09:00AM 37.5122 -79.8936 238° Southwest 469 540 36,000  Level Washington Center
09:01AM 37.4425 -80.0283 237° Southwest 469 540 36,000  Level Washington Center
09:02AM 37.3728 -80.1628 237° Southwest 463 533 36,000  Level Washington Center
09:02AM 37.3239 -80.2469 234° Southwest 481 554 36,000  Level Atlanta Center
09:03AM 37.2708 -80.3564 239° Southwest 461 531 36,000  Level Atlanta Center
09:04AM 37.2017 -80.4900 237° Southwest 461 531 36,000  Level Atlanta Center
09:05AM 37.1328 -80.6258 238° Southwest 466 536 36,000  Level Atlanta Center
09:06AM 37.0633 -80.7589 237° Southwest 472 543 36,000  Level Atlanta Center
09:07AM 36.9861 -80.9103 237° Southwest 472 543 36,000  Level Atlanta Center
09:08AM 36.9186 -81.0453 238° Southwest 472 543 36,000  Level Atlanta Center
09:09AM 36.8486 -81.1803 237° Southwest 472 543 36,000  Level Atlanta Center
09:10AM 36.7808 -81.3147 238° Southwest 472 543 36,000  Level Atlanta Center
09:11AM 36.7150 -81.4439 238° Southwest 458 527 36,000  Level Atlanta Center
09:12AM 36.6528 -81.5675 238° Southwest 463 533 36,000  Level Atlanta Center
09:13AM 36.5825 -81.7017 237° Southwest 463 533 36,000  Level Atlanta Center
09:14AM 36.5081 -81.8511 238° Southwest 463 533 36,000  Level Atlanta Center
09:15AM 36.4433 -81.9689 236° Southwest 463 533 36,000  Level Atlanta Center
09:16AM 36.3644 -82.1153 236° Southwest 458 527 36,000  Level Atlanta Center
09:17AM 36.2975 -82.2483 238° Southwest 463 533 36,000  Level Atlanta Center
09:18AM 36.2244 -82.3786 235° Southwest 458 527 36,000  Level Atlanta Center
09:19AM 36.1553 -82.5139 238° Southwest 463 533 36,000  Level Atlanta Center
09:20AM 36.0878 -82.6411 237° Southwest 463 533 36,000  Level Atlanta Center
09:21AM 36.0142 -82.7731 235° Southwest 458 527 36,000  Level Atlanta Center
09:22AM 35.9444 -82.9050 237° Southwest 464 534 36,000  Level Atlanta Center
09:23AM 35.8769 -83.0342 237° Southwest 459 528 36,000  Level Atlanta Center
09:24AM 35.8047 -83.1656 236° Southwest 459 528 36,000  Level Atlanta Center
09:25AM 35.7389 -83.2917 237° Southwest 457 526 36,000  Level Atlanta Center
09:26AM 35.6686 -83.4203 236° Southwest 457 526 36,000  Level Atlanta Center
09:27AM 35.5983 -83.5483 236° Southwest 457 526 36,000  Level Atlanta Center
09:28AM 35.5300 -83.6764 237° Southwest 457 526 36,000  Level Atlanta Center
09:29AM 35.4572 -83.8017 235° Southwest 457 526 36,000  Level Atlanta Center
09:30AM 35.3886 -83.9267 236° Southwest 452 520 36,000  Level Atlanta Center
09:31AM 35.3197 -84.0539 236° Southwest 452 520 36,000  Level Atlanta Center
09:32AM 35.2508 -84.1761 235° Southwest 452 520 36,000  Level Atlanta Center
09:33AM 35.1797 -84.3031 236° Southwest 452 520 36,000  Level Atlanta Center
09:34AM 35.1106 -84.4297 236° Southwest 452 520 36,000  Level Atlanta Center
09:35AM 35.0411 -84.5511 235° Southwest 447 514 36,000  Level Atlanta Center
09:36AM 34.9717 -84.6750 236° Southwest 447 514 36,000  Level Atlanta Center
09:37AM 34.9000 -84.7986 235° Southwest 447 514 36,000  Level Atlanta Center
09:38AM 34.8431 -84.8967 235° Southwest 447 514 36,000  Level Atlanta Center
09:39AM 34.7669 -85.0325 236° Southwest 447 514 36,000  Level Atlanta Center
09:40AM 34.6950 -85.1581 235° Southwest 447 514 36,000  Level Atlanta Center
09:41AM 34.6228 -85.2833 235° Southwest 447 514 36,000  Level Atlanta Center
09:42AM 34.5528 -85.4058 235° Southwest 447 514 36,000  Level Atlanta Center
09:43AM 34.4803 -85.5281 234° Southwest 447 514 36,000  Level Atlanta Center
09:44AM 34.4078 -85.6500 234° Southwest 447 514 36,000  Level Atlanta Center
09:45AM 34.3414 -85.7772 238° Southwest 447 514 36,000  Level Atlanta Center
09:46AM 34.2667 -85.8939 232° Southwest 447 514 36,000  Level Atlanta Center
09:47AM 34.1981 -86.0153 236° Southwest 447 514 36,000  Level Atlanta Center
09:48AM 34.1250 -86.1392 235° Southwest 447 514 36,000  Level Atlanta Center
09:49AM 34.0539 -86.2578 234° Southwest 447 514 36,000  Level Atlanta Center
09:50AM 33.9808 -86.3786 234° Southwest 447 514 36,000  Level Atlanta Center
09:51AM 33.9075 -86.4992 234° Southwest 447 514 36,000  Level Atlanta Center
09:52AM 33.8361 -86.6197 235° Southwest 447 514 36,000  Level Atlanta Center
09:53AM 33.7625 -86.7450 235° Southwest 452 520 36,000  Level Atlanta Center
09:54AM 33.6889 -86.8650 234° Southwest 452 520 36,000  Level Atlanta Center
09:55AM 33.6064 -86.9944 233° Southwest 452 520 36,000  Level Atlanta Center
09:56AM 33.5283 -87.1114 231° Southwest 447 514 36,000  Level Atlanta Center
09:57AM 33.4503 -87.2256 231° Southwest 447 514 36,000  Level Atlanta Center
09:58AM 33.3722 -87.3422 231° Southwest 453 521 36,000  Level Atlanta Center
09:59AM 33.2981 -87.4561 232° Southwest 453 521 36,000  Level Atlanta Center
10:00AM 33.2219 -87.5650 230° Southwest 453 521 36,000  Level Atlanta Center
10:01AM 33.1433 -87.6883 233° Southwest 458 527 36,000  Level Atlanta Center
10:02AM 33.0653 -87.8017 231° Southwest 453 521 36,000  Level Memphis Center
10:03AM 32.9922 -87.9150 232° Southwest 453 521 36,000  Level Memphis Center
10:04AM 32.9172 -88.0261 231° Southwest 448 516 36,000  Level Memphis Center
10:05AM 32.8442 -88.1369 232° Southwest 443 510 36,000  Level Memphis Center
10:06AM 32.7667 -88.2425 229° Southwest 436 502 36,000  Level Memphis Center
10:07AM 32.6911 -88.3531 231° Southwest 430 495 36,000  Level Memphis Center
10:08AM 32.6178 -88.4606 231° Southwest 430 495 36,000  Level Memphis Center
10:09AM 32.5422 -88.5706 231° Southwest 430 495 36,000  Level Memphis Center
10:10AM 32.4664 -88.6806 231° Southwest 430 495 36,000  Level Memphis Center
10:11AM 32.3925 -88.7828 229° Southwest 425 489 36,000  Level Memphis Center
10:12AM 32.3061 -88.8778 223° Southwest 420 483 36,000  Level Memphis Center
10:13AM 32.2172 -88.9625 219° Southwest 420 483 36,000  Level Memphis Center
10:14AM 32.1244 -89.0522 219° Southwest 426 490 36,000  Level Memphis Center
10:15AM 32.0356 -89.1394 220° Southwest 426 490 36,000 -840 Level Memphis Center
10:16AM 31.9422 -89.2264 218° Southwest 426 490 34,400 -1,860 Descending Memphis Center
10:18AM 31.8203 -89.3456 220° Southwest 402 463 31,300 -1,980 Descending Houston Center
10:19AM 31.7350 -89.4258 219° Southwest 396 456 29,300 -1,620 Descending Houston Center
10:20AM 31.6303 -89.5253 219° Southwest 403 464 28,000 -660 Descending Houston Center
10:21AM 31.5506 -89.6006 219° Southwest 401 461 28,000  Level Houston Center
10:22AM 31.4667 -89.6819 220° Southwest 395 455 28,000  Level Houston Center
10:23AM 31.3639 -89.7781 219° Southwest 393 452 28,000 -420 Level Houston Center
10:24AM 31.2797 -89.8594 220° Southwest 393 452 27,200 -1,440 Descending Houston Center
10:25AM 31.1958 -89.9403 220° Southwest 392 451 25,100 -2,040 Descending Houston Center
10:26AM 31.1111 -90.0178 218° Southwest 388 447 23,100 -2,160 Descending Houston Center
10:27AM 31.0175 -90.0656 204° Southwest 379 436 20,700 -2,520 Descending Houston Center
10:28AM 30.9136 -90.0947 194° South 359 413 18,400 -2,520 Descending Houston Center
10:28AM 30.8844 -90.1033 194° South 354 407 17,800 -1,980 Descending Houston Center
10:29AM 30.7889 -90.1169 187° South 355 409 15,800 -2,040 Descending Houston Center
10:30AM 30.7064 -90.1172 180° South 351 404 13,900 -2,040 Descending Houston Center
10:31AM 30.6031 -90.1200 181° South 342 394 11,900 -1,740 Descending Houston Center
10:32AM 30.5153 -90.1211 181° South 308 354 10,400 -1,620 Descending Houston Center
10:33AM 30.4442 -90.1217 180° South 268 308 8,800 -1,680 Descending Houston Center
10:35AM 30.3589 -90.1350 188° South 274 315 6,900 -1,140 Descending Houston Center
10:35AM 30.2969 -90.1542 195° South 248 285 6,400 -960 Descending Houston Center
10:36AM 30.2411 -90.1711 195° South 205 236 5,100 -1,380 Descending Houston Center
10:37AM 30.1747 -90.1906 194° South 220 253 3,600 -1,080 Descending Houston Center
10:39AM 30.1250 -90.2075 196° South 209 241 2,800 -900 Descending Houston Center
10:40AM 30.0794 -90.2208 194° South 153 176 1,800 -960 Descending Houston Center
10:41AM 30.0464 -90.2319 196° South 132 152 1,100 -720 Descending Houston Center